Flight Track Log - Related Links

Times and Time Zones

All times are in EDT time to prevent confusion due to time zone crossing. See the KAP927 flight status page for this flight to view local times or setup timezone preferences in your user account.

Time Position Orientation Groundspeed Altitude Reporting Facility
EDT Latitude Longitude Course Direction KTS MPH feet Rate Location/Type
Wed 07:06:00 AM 44.6499 -75.4370 148° Southeast  Level Estimated
Wed 07:08:07 AM 44.6081 -75.3503 148° Southeast 149 171 2,700  Level Boston Center
Wed 07:09:07 AM 44.5817 -75.3197 140° Southeast 139 160 3,200 450 Climbing Boston Center
Wed 07:10:07 AM 44.5489 -75.2950 152° Southeast 133 153 3,600 450 Climbing Boston Center
Wed 07:11:07 AM 44.5164 -75.2642 146° Southeast 138 159 4,100 450 Climbing Boston Center
Wed 07:12:07 AM 44.4858 -75.2367 147° Southeast 138 159 4,500 400 Climbing Boston Center
Wed 07:13:07 AM 44.4531 -75.2147 154° Southeast 138 159 4,900 400 Climbing Boston Center
Wed 07:14:07 AM 44.4267 -75.1844 141° Southeast 138 159 5,300 450 Climbing Boston Center
Wed 07:15:07 AM 44.3958 -75.1656 156° South 133 153 5,800 450 Climbing Boston Center
Wed 07:16:07 AM 44.3611 -75.1289 143° Southeast 138 159 6,200 450 Climbing Boston Center
Wed 07:17:07 AM 44.3283 -75.1072 155° Southeast 138 159 6,700 450 Climbing Boston Center
Wed 07:18:07 AM 44.2958 -75.0767 146° Southeast 138 159 7,100 200 Climbing Boston Center
Wed 07:19:07 AM 44.2611 -75.0461 148° Southeast 138 159 7,100  Level Boston Center
Wed 07:20:07 AM 44.2200 -75.0125 150° Southeast 149 171 7,100  Level Boston Center
Wed 07:21:07 AM 44.1769 -74.9789 151° Southeast 160 184 7,100  Level Boston Center
Wed 07:22:07 AM 44.1361 -74.9453 149° Southeast 172 198 7,100  Level Boston Center
Wed 07:23:07 AM 44.0953 -74.9117 149° Southeast 172 198 7,100  Level Boston Center
Wed 07:24:07 AM 44.0564 -74.8756 146° Southeast 177 204 7,100  Level Boston Center
Wed 07:25:07 AM 44.0175 -74.8450 151° Southeast 177 204 7,100  Level Boston Center
Wed 07:26:07 AM 43.9783 -74.8117 149° Southeast 177 204 7,100  Level Boston Center
Wed 07:27:07 AM 43.9417 -74.7814 149° Southeast 172 198 7,100  Level Boston Center
Wed 07:28:07 AM 43.9025 -74.7511 151° Southeast 162 186 7,100  Level Boston Center
Wed 07:29:07 AM 43.8678 -74.7181 146° Southeast 162 186 7,100 -50 Level Boston Center
Wed 07:30:07 AM 43.8289 -74.6878 151° Southeast 162 186 7,000  Descending Boston Center
Wed 07:31:07 AM 43.7900 -74.6547 148° Southeast 162 186 7,100 50 Climbing Boston Center
Wed 07:32:07 AM 43.7531 -74.6244 149° Southeast 162 186 7,100  Level Boston Center
Wed 07:33:07 AM 43.7161 -74.5944 150° Southeast 162 186 7,100  Level Boston Center
Wed 07:34:07 AM 43.6769 -74.5644 151° Southeast 162 186 7,100  Level Boston Center
Wed 07:35:07 AM 43.6400 -74.5317 147° Southeast 162 186 7,100  Level Boston Center
Wed 07:36:07 AM 43.6011 -74.5014 151° Southeast 162 186 7,100  Level Boston Center
Wed 07:37:07 AM 43.5639 -74.4717 150° Southeast 162 186 7,100  Level Boston Center
Wed 07:38:07 AM 43.5269 -74.4417 150° Southeast 162 186 7,100  Level Boston Center
Wed 07:39:07 AM 43.4900 -74.4089 147° Southeast 162 186 7,100  Level Boston Center
Wed 07:39:46 AM 43.4633 -74.3881 150° Southeast 156 180 7,100  Level Boston Center
Wed 07:40:16 AM 43.4428 -74.3703 148° Southeast 156 180 7,100  Level Boston Center
Wed 07:41:07 AM 43.4161 -74.3467 147° Southeast 162 186 7,100  Level Boston Center
Wed 07:42:07 AM 43.3750 -74.3139 150° Southeast 162 186 7,100  Level Boston Center
Wed 07:43:07 AM 43.3419 -74.2872 150° Southeast 162 186 7,100  Level Boston Center
Wed 07:44:07 AM 43.2989 -74.2517 149° Southeast 162 186 7,100 -100 Level Boston Center
Wed 07:45:07 AM 43.2658 -74.2278 152° Southeast 162 186 6,900 -409 Descending Boston Center
Wed 07:46:19 AM 43.2119 -74.2036 162° South 178 205 6,200 -682 Descending Boston Center
Wed 07:47:19 AM 43.1542 -74.1706 157° South 188 216 5,400 -750 Descending Boston Center
Wed 07:48:19 AM 43.1047 -74.1436 158° South 188 216 4,700 -600 Descending Boston Center
Wed 07:49:19 AM 43.0550 -74.1194 160° South 188 216 4,200 -350 Descending Boston Center
Wed 07:50:19 AM 43.0094 -74.0897 154° Southeast 188 216 4,000 -100 Descending Boston Center
Wed 07:51:19 AM 42.9683 -74.0603 152° Southeast 175 201 4,000 -150 Level Boston Center
Wed 07:52:19 AM 42.9269 -74.0308 152° Southeast 166 191 3,700 -350 Descending Boston Center
Wed 07:53:19 AM 42.8817 -73.9956 150° Southeast 178 205 3,300 -350 Descending Boston Center
Wed 07:54:19 AM 42.8361 -73.9692 157° South 178 205 3,000 -286 Descending Boston Center
Wed 07:55:25 AM 42.7908 -73.9311 148° Southeast 179 206 2,700 -378 Descending Boston Center
Wed 07:56:26 AM 42.7497 -73.8906 144° Southeast 184 212 2,200 -639 Descending Boston Center
Wed 07:57:27 AM 42.7169 -73.8444 134° Southeast 163 188 1,400 -793 Descending Boston Center
Wed 07:58:27 AM 42.7278 -73.8081 68° East 111 128 600 -800 Descending Boston Center
Wed 08:00:00 AM 42.7491 -73.8020 47° Northeast  Level Estimated
Wed 08:07:00 AM 42.7491 -73.8020 160° South  Level Estimated
Wed 08:08:00 AM 42.7491 -73.8020 160° South  Level Estimated

Login

Don't have an account? Register now (free) for customized features, flight alerts, and more!